createdAt,value
2022-09-07T00:01:08.673Z,76.73
2022-09-07T00:03:36.927Z,76.75
2022-09-07T00:06:12.655Z,76.45
2022-09-07T00:08:43.793Z,76.63
2022-09-07T00:11:15.400Z,76.81
2022-09-07T00:13:45.557Z,77.03
2022-09-07T00:16:17.074Z,77.14
2022-09-07T00:18:46.471Z,76.92
2022-09-07T00:21:17.220Z,76.62
2022-09-07T00:23:45.692Z,76.83
2022-09-07T00:26:23.280Z,77.04
2022-09-07T00:28:51.629Z,78.02
2022-09-07T00:31:23.551Z,77.45
2022-09-07T00:33:53.046Z,78.08
2022-09-07T00:36:22.694Z,77.80
2022-09-07T00:38:50.850Z,77.75
2022-09-07T00:41:20.963Z,78.14
2022-09-07T00:43:52.307Z,77.85
2022-09-07T00:46:24.373Z,77.89
2022-09-07T00:49:08.179Z,77.84
2022-09-07T00:51:53.013Z,78.06
2022-09-07T00:54:29.952Z,78.33
2022-09-07T00:56:57.796Z,78.60
2022-09-07T00:59:31.091Z,78.51
2022-09-07T01:01:59.381Z,78.57
2022-09-07T01:04:30.125Z,78.50
2022-09-07T01:06:58.286Z,79.14
2022-09-07T01:09:27.621Z,79.25
2022-09-07T01:11:59.756Z,79.16
2022-09-07T01:14:36.896Z,79.36
2022-09-07T01:17:25.337Z,79.14
2022-09-07T01:20:05.347Z,79.10
2022-09-07T01:22:56.196Z,79.04
2022-09-07T01:25:58.842Z,79.20
2022-09-07T01:28:31.119Z,79.08
2022-09-07T01:31:33.592Z,79.09
2022-09-07T01:34:23.747Z,78.93
2022-09-07T01:36:59.649Z,79.76
2022-09-07T01:39:41.058Z,79.74
2022-09-07T01:42:15.401Z,79.83
2022-09-07T01:44:47.826Z,79.92
2022-09-07T01:47:18.416Z,79.97
2022-09-07T01:50:01.438Z,80.25
2022-09-07T01:52:41.065Z,80.40
2022-09-07T01:55:28.473Z,80.81
2022-09-07T01:58:17.481Z,80.70
2022-09-07T02:00:55.508Z,80.48
2022-09-07T02:03:41.213Z,81.07
2022-09-07T02:06:30.098Z,81.18
2022-09-07T02:09:06.554Z,81.48
2022-09-07T02:11:38.339Z,81.01
2022-09-07T02:14:27.945Z,80.98
2022-09-07T02:17:06.969Z,81.70
2022-09-07T02:19:46.863Z,81.97
2022-09-07T02:22:21.249Z,81.79
2022-09-07T02:24:54.139Z,81.73
2022-09-07T02:27:39.305Z,81.47
2022-09-07T02:30:07.574Z,81.40
2022-09-07T02:32:35.695Z,81.38
2022-09-07T02:35:03.839Z,81.30
2022-09-07T02:37:33.751Z,81.72
2022-09-07T02:40:02.085Z,81.46
2022-09-07T02:42:32.294Z,82.03
2022-09-07T02:45:02.606Z,82.41
2022-09-07T02:47:31.181Z,82.20
2022-09-07T02:50:10.103Z,82.75
2022-09-07T02:53:15.874Z,82.55
2022-09-07T02:56:12.918Z,82.69
2022-09-07T02:59:31.418Z,82.84
2022-09-07T03:02:02.158Z,82.65
2022-09-07T03:04:48.123Z,83.11
2022-09-07T03:07:37.555Z,82.70
2022-09-07T03:10:08.725Z,83.54
2022-09-07T03:12:45.689Z,83.41
2022-09-07T03:15:20.383Z,83.28
2022-09-07T03:17:49.014Z,83.75
2022-09-07T03:20:17.489Z,83.44
2022-09-07T03:22:46.816Z,83.69
2022-09-07T03:25:15.198Z,83.84
2022-09-07T03:27:43.143Z,83.43
2022-09-07T03:30:12.793Z,83.61
2022-09-07T03:32:40.677Z,83.33
2022-09-07T03:35:09.318Z,83.86
2022-09-07T03:37:38.379Z,83.71
2022-09-07T03:40:09.596Z,84.02
2022-09-07T03:42:38.102Z,84.13
2022-09-07T03:45:07.550Z,84.11
2022-09-07T03:47:39.266Z,84.16
2022-09-07T03:50:07.961Z,84.33
2022-09-07T03:52:36.765Z,84.33
2022-09-07T03:55:05.240Z,84.46
2022-09-07T03:57:33.417Z,83.47
2022-09-07T04:00:01.309Z,83.46
2022-09-07T04:02:29.344Z,83.58
2022-09-07T04:04:57.544Z,84.11
2022-09-07T04:07:25.267Z,84.12
2022-09-07T04:09:53.084Z,84.27
2022-09-07T04:12:20.952Z,84.02
2022-09-07T04:14:49.179Z,83.84
2022-09-07T04:17:16.943Z,83.96
2022-09-07T04:19:44.993Z,83.64
2022-09-07T04:22:12.740Z,83.22
2022-09-07T04:24:40.457Z,83.07
2022-09-07T04:27:08.656Z,82.70
2022-09-07T04:29:36.398Z,82.63
2022-09-07T04:32:04.228Z,82.74
2022-09-07T04:34:32.197Z,82.04
2022-09-07T04:36:59.945Z,82.14
2022-09-07T04:39:27.734Z,81.87
2022-09-07T04:41:56.853Z,81.62
2022-09-07T04:44:24.604Z,80.88
2022-09-07T04:46:52.604Z,80.97
2022-09-07T04:49:20.963Z,81.00
2022-09-07T04:51:48.760Z,80.71
2022-09-07T04:54:16.547Z,80.42
2022-09-07T04:56:44.966Z,79.56
2022-09-07T04:59:12.683Z,79.37
2022-09-07T05:01:40.557Z,79.37
2022-09-07T05:04:08.929Z,78.94
2022-09-07T05:06:36.691Z,78.07
2022-09-07T05:09:04.574Z,77.55
2022-09-07T05:11:33.034Z,76.80
2022-09-07T05:14:02.912Z,76.75
2022-09-07T05:16:32.166Z,75.87
2022-09-07T05:19:02.517Z,75.53
2022-09-07T05:21:33.111Z,75.03
2022-09-07T05:24:02.088Z,73.97
2022-09-07T05:26:33.062Z,72.89
2022-09-07T05:31:50.497Z,71.60
2022-09-07T05:34:33.760Z,71.10
2022-09-07T05:37:02.264Z,70.26
2022-09-07T05:39:32.058Z,69.95
2022-09-07T05:41:59.882Z,68.45
2022-09-07T05:47:11.234Z,67.41
2022-09-07T05:49:39.150Z,67.05
2022-09-07T05:52:07.007Z,66.05
2022-09-07T05:54:34.987Z,65.06
2022-09-07T05:57:03.756Z,64.47
2022-09-07T05:59:31.569Z,63.22
2022-09-07T06:01:59.628Z,63.09
2022-09-07T06:04:27.584Z,62.67
2022-09-07T06:12:31.195Z,61.13
2022-09-07T06:15:01.441Z,60.18
2022-09-07T06:17:31.122Z,59.07
2022-09-07T06:19:58.943Z,57.93
2022-09-07T06:22:30.777Z,57.35
2022-09-07T06:24:59.495Z,57.46
2022-09-07T06:27:27.461Z,56.74
2022-09-07T06:29:55.857Z,56.48
2022-09-07T06:35:12.406Z,55.59
2022-09-07T06:37:40.599Z,54.93
2022-09-07T06:40:10.591Z,54.58
2022-09-07T06:42:39.289Z,53.24
2022-09-07T06:45:07.631Z,53.08
2022-09-07T06:47:35.323Z,52.64
2022-09-07T06:50:03.421Z,52.57
2022-09-07T06:55:19.121Z,51.55
2022-09-07T06:57:46.900Z,51.30
2022-09-07T07:00:15.010Z,50.92
2022-09-07T07:02:42.932Z,50.60
2022-09-07T07:05:10.952Z,50.09
2022-09-07T07:07:38.729Z,49.98
2022-09-07T07:10:07.000Z,49.52
2022-09-07T07:15:04.154Z,47.84
2022-09-07T07:17:32.204Z,47.25
2022-09-07T07:20:00.025Z,47.02
2022-09-07T07:22:46.168Z,45.95
2022-09-07T07:25:15.272Z,45.46
2022-09-07T07:27:43.212Z,44.86
2022-09-07T07:30:11.834Z,44.21
2022-09-07T07:32:40.626Z,43.69
2022-09-07T07:35:08.946Z,43.40
2022-09-07T07:37:37.932Z,41.73
2022-09-07T07:40:17.562Z,40.25
2022-09-07T07:42:48.190Z,35.75
2022-09-07T07:48:04.549Z,27.46
2022-09-07T07:50:33.247Z,24.56
2022-09-07T07:55:49.517Z,21.17
2022-09-07T07:58:17.835Z,19.50
2022-09-07T08:01:01.234Z,18.75
2022-09-07T08:03:29.396Z,17.83
2022-09-07T08:06:04.905Z,17.26
2022-09-07T08:08:32.882Z,16.11
2022-09-07T08:11:05.448Z,15.90
2022-09-07T08:13:33.850Z,15.82
2022-09-07T08:16:02.781Z,15.47
2022-09-07T08:18:31.125Z,15.38
2022-09-07T08:21:04.094Z,15.31
2022-09-07T08:23:33.360Z,15.00
2022-09-07T08:26:01.678Z,14.86
2022-09-07T08:28:31.710Z,14.32
2022-09-07T08:31:03.899Z,14.05
2022-09-07T08:33:31.886Z,14.39
2022-09-07T08:36:03.159Z,13.78
2022-09-07T08:38:35.027Z,13.36
2022-09-07T08:41:19.895Z,13.32
2022-09-07T08:43:58.014Z,13.69
2022-09-07T08:46:50.281Z,13.18
2022-09-07T08:49:39.094Z,13.14
2022-09-07T08:52:11.784Z,13.32
2022-09-07T08:54:44.241Z,13.06
2022-09-07T08:57:23.026Z,13.02
2022-09-07T09:00:16.773Z,12.89
2022-09-07T09:02:45.652Z,12.70
2022-09-07T09:05:35.058Z,12.23
2022-09-07T09:08:39.871Z,12.53
2022-09-07T09:11:49.133Z,12.28
2022-09-07T09:14:37.181Z,12.72
2022-09-07T09:17:19.078Z,12.77
2022-09-07T09:20:08.633Z,12.79
2022-09-07T09:22:36.420Z,13.28
2022-09-07T09:25:19.660Z,13.27
2022-09-07T09:27:48.943Z,13.38
2022-09-07T09:30:21.714Z,13.28
2022-09-07T09:33:23.227Z,13.32
2022-09-07T09:35:53.831Z,12.85
2022-09-07T09:38:31.276Z,13.08
2022-09-07T09:41:08.986Z,13.37
2022-09-07T09:43:48.325Z,13.74
2022-09-07T09:46:29.651Z,13.91
2022-09-07T09:49:05.661Z,13.77
2022-09-07T09:54:38.435Z,13.09
2022-09-07T09:57:13.105Z,13.41
2022-09-07T10:00:01.723Z,13.67
2022-09-07T10:05:27.479Z,14.28
2022-09-07T10:07:56.882Z,14.23
2022-09-07T10:10:26.461Z,14.41
2022-09-07T10:12:55.991Z,14.83
2022-09-07T10:15:34.461Z,14.60
2022-09-07T10:18:06.993Z,15.59
2022-09-07T10:20:37.517Z,17.16
2022-09-07T10:23:18.803Z,18.04
2022-09-07T10:25:47.630Z,19.63
2022-09-07T10:28:24.847Z,19.79
2022-09-07T10:31:18.675Z,20.35
2022-09-07T10:37:08.860Z,22.41
2022-09-07T10:39:42.261Z,22.46
2022-09-07T10:42:22.513Z,23.31
2022-09-07T10:45:03.464Z,23.54
2022-09-07T10:47:44.452Z,23.94
2022-09-07T10:50:25.151Z,24.65
2022-09-07T10:53:13.392Z,24.74
2022-09-07T10:56:10.952Z,24.78
2022-09-07T10:59:21.358Z,24.65
2022-09-07T11:02:11.294Z,24.39
2022-09-07T11:04:44.488Z,24.60
2022-09-07T11:07:32.852Z,24.71
2022-09-07T11:10:22.068Z,24.60
2022-09-07T11:12:52.228Z,24.79
2022-09-07T11:15:28.663Z,25.02
2022-09-07T11:18:03.559Z,24.53
2022-09-07T11:20:54.952Z,23.98
2022-09-07T11:23:44.276Z,23.81
2022-09-07T11:26:25.273Z,24.03
2022-09-07T11:29:36.502Z,23.95
2022-09-07T11:32:12.710Z,24.12
2022-09-07T11:35:04.486Z,24.33
2022-09-07T11:37:55.410Z,24.08
2022-09-07T11:40:37.225Z,24.53
2022-09-07T11:43:30.379Z,24.62
2022-09-07T11:46:20.541Z,24.25
2022-09-07T11:48:55.234Z,24.00
2022-09-07T11:51:38.820Z,24.05
2022-09-07T11:54:29.750Z,24.16
2022-09-07T11:57:20.682Z,24.14
2022-09-07T12:00:00.760Z,24.19
2022-09-07T12:02:59.483Z,23.48
2022-09-07T12:05:56.308Z,23.60
2022-09-07T12:08:45.191Z,23.97
2022-09-07T12:11:28.281Z,24.25
2022-09-07T12:14:46.961Z,24.07
2022-09-07T12:17:47.085Z,24.32
2022-09-07T12:20:21.041Z,24.36
2022-09-07T12:23:04.491Z,23.95
2022-09-07T12:25:35.189Z,24.12
2022-09-07T12:28:03.325Z,23.98
2022-09-07T12:30:32.252Z,24.12
2022-09-07T12:33:19.890Z,24.35
2022-09-07T12:35:47.859Z,24.16
2022-09-07T12:38:18.057Z,24.24
2022-09-07T12:41:24.699Z,24.31
2022-09-07T12:44:05.548Z,24.39
2022-09-07T12:46:34.859Z,23.60
2022-09-07T12:49:33.316Z,23.78
2022-09-07T12:52:20.910Z,24.29
2022-09-07T12:55:28.938Z,24.33
2022-09-07T12:58:21.798Z,22.95
2022-09-07T13:01:28.636Z,22.39
2022-09-07T13:04:37.335Z,22.31
2022-09-07T13:07:07.924Z,22.75
2022-09-07T13:09:38.517Z,22.79
2022-09-07T13:15:59.859Z,23.12
2022-09-07T13:18:27.692Z,23.16
2022-09-07T13:21:08.098Z,22.74
2022-09-07T13:23:44.525Z,22.68
2022-09-07T13:26:58.880Z,22.39
2022-09-07T13:29:50.481Z,22.22
2022-09-07T13:33:08.022Z,23.10
2022-09-07T13:35:21.572Z,23.22
2022-09-07T13:37:54.387Z,23.21
2022-09-07T13:40:28.566Z,23.11
2022-09-07T13:42:58.678Z,23.12
2022-09-07T13:45:33.576Z,23.27
2022-09-07T13:48:21.649Z,23.48
2022-09-07T13:51:05.433Z,23.63
2022-09-07T13:53:46.766Z,23.28
2022-09-07T13:56:59.230Z,23.08
2022-09-07T13:59:33.443Z,23.04
2022-09-07T14:02:02.164Z,23.07
2022-09-07T14:04:35.430Z,22.73
2022-09-07T14:07:15.031Z,23.52
2022-09-07T14:09:43.227Z,23.20
2022-09-07T14:12:20.153Z,22.80
2022-09-07T14:15:09.216Z,22.63
2022-09-07T14:17:37.425Z,23.05
2022-09-07T14:20:06.602Z,23.18
2022-09-07T14:22:35.723Z,23.28
2022-09-07T14:25:06.140Z,23.47
2022-09-07T14:27:39.921Z,23.34
2022-09-07T14:30:22.989Z,23.38
2022-09-07T14:32:53.111Z,22.69
2022-09-07T14:35:24.683Z,23.05
2022-09-07T14:37:53.284Z,23.27
2022-09-07T14:40:24.273Z,23.20
2022-09-07T14:42:54.162Z,22.72
2022-09-07T14:45:26.439Z,22.37
2022-09-07T14:47:56.319Z,22.00
2022-09-07T14:50:32.797Z,22.11
2022-09-07T14:56:02.229Z,23.04
2022-09-07T14:58:33.197Z,23.32
2022-09-07T15:04:15.979Z,23.03
2022-09-07T15:07:02.320Z,23.29
2022-09-07T15:09:38.678Z,23.09
2022-09-07T15:12:36.064Z,23.33
2022-09-07T15:15:37.399Z,23.69
2022-09-07T15:18:25.900Z,23.58
2022-09-07T15:20:53.692Z,23.68
2022-09-07T15:23:21.600Z,23.64
2022-09-07T15:25:53.632Z,23.32
2022-09-07T15:34:15.796Z,23.66
2022-09-07T15:36:55.623Z,23.89
2022-09-07T15:39:27.985Z,23.81
2022-09-07T15:41:56.772Z,24.32
2022-09-07T15:44:27.935Z,24.51
2022-09-07T15:49:50.025Z,25.01
2022-09-07T15:52:18.994Z,25.11
2022-09-07T15:54:46.842Z,25.27
2022-09-07T16:00:03.946Z,25.40
2022-09-07T16:05:31.164Z,25.45
2022-09-07T16:11:05.226Z,25.76
2022-09-07T16:13:34.244Z,26.04
2022-09-07T16:16:05.749Z,26.46
2022-09-07T16:18:34.886Z,26.58
2022-09-07T16:21:12.469Z,27.07
2022-09-07T16:23:43.661Z,27.48
2022-09-07T16:26:12.773Z,27.82
2022-09-07T16:28:42.643Z,28.22
2022-09-07T16:31:17.791Z,28.23
2022-09-07T16:33:46.139Z,28.64
2022-09-07T16:36:16.359Z,28.93
2022-09-07T16:38:48.587Z,29.06
2022-09-07T16:41:22.959Z,29.31
2022-09-07T16:43:50.863Z,29.62
2022-09-07T16:46:21.631Z,30.00
2022-09-07T16:48:50.474Z,30.39
2022-09-07T16:51:21.306Z,30.99
2022-09-07T16:53:51.503Z,31.69
2022-09-07T16:56:21.377Z,31.86
2022-09-07T16:58:55.494Z,32.47
2022-09-07T17:01:32.523Z,32.97
2022-09-07T17:04:01.650Z,33.32
2022-09-07T17:06:31.786Z,33.63
2022-09-07T17:09:00.356Z,34.25
2022-09-07T17:11:32.016Z,34.58
2022-09-07T17:14:01.243Z,35.09
2022-09-07T17:16:32.141Z,35.65
2022-09-07T17:21:52.745Z,36.32
2022-09-07T17:24:20.748Z,36.53
2022-09-07T17:26:48.672Z,36.96
2022-09-07T17:29:16.792Z,37.50
2022-09-07T17:34:32.620Z,38.82
2022-09-07T17:37:01.163Z,39.52
2022-09-07T17:39:29.699Z,40.50
2022-09-07T17:41:58.206Z,41.36
2022-09-07T17:44:30.812Z,41.97
2022-09-07T17:47:01.272Z,42.25
2022-09-07T17:49:29.468Z,42.32
2022-09-07T17:51:58.647Z,42.96
2022-09-07T17:54:26.875Z,43.48
2022-09-07T17:56:54.677Z,43.69
2022-09-07T18:02:13.773Z,44.80
2022-09-07T18:04:41.772Z,45.58
2022-09-07T18:07:09.555Z,45.93
2022-09-07T18:09:37.519Z,46.10
2022-09-07T18:12:05.617Z,46.68
2022-09-07T18:14:33.366Z,47.11
2022-09-07T18:17:01.357Z,47.54
2022-09-07T18:19:29.189Z,48.49
2022-09-07T18:21:57.107Z,49.02
2022-09-07T18:24:25.501Z,49.91
2022-09-07T18:26:54.173Z,50.10
2022-09-07T18:29:33.886Z,50.33
2022-09-07T18:32:07.993Z,50.88
2022-09-07T18:34:40.657Z,51.26
2022-09-07T18:37:12.289Z,51.51
2022-09-07T18:39:40.896Z,51.79
2022-09-07T18:42:09.568Z,52.13
2022-09-07T18:47:28.884Z,52.95
2022-09-07T18:49:58.554Z,53.00
2022-09-07T18:55:15.453Z,53.91
2022-09-07T18:57:43.208Z,54.39
2022-09-07T19:00:12.995Z,54.42
2022-09-07T19:02:40.995Z,54.10
2022-09-07T19:07:59.562Z,54.43
2022-09-07T19:10:27.464Z,54.55
2022-09-07T19:12:55.935Z,54.94
2022-09-07T19:15:23.777Z,55.26
2022-09-07T19:17:51.598Z,55.32
2022-09-07T19:20:19.296Z,55.57
2022-09-07T19:22:47.818Z,56.30
2022-09-07T19:25:15.725Z,56.49
2022-09-07T19:27:43.461Z,56.31
2022-09-07T19:30:11.937Z,56.41
2022-09-07T19:32:39.654Z,56.46
2022-09-07T19:35:07.768Z,56.62
2022-09-07T19:37:35.767Z,56.67
2022-09-07T19:40:03.831Z,56.93
2022-09-07T19:42:31.728Z,56.87
2022-09-07T19:45:00.138Z,56.67
2022-09-07T19:47:27.926Z,56.34
2022-09-07T19:49:55.686Z,56.30
2022-09-07T19:52:23.613Z,56.17
2022-09-07T19:54:51.332Z,56.23
2022-09-07T19:57:18.998Z,56.20
2022-09-07T19:59:47.320Z,55.49
2022-09-07T20:02:15.023Z,55.28
2022-09-07T20:04:42.814Z,55.03
2022-09-07T20:07:11.590Z,55.10
2022-09-07T20:09:39.864Z,54.95
2022-09-07T20:12:08.833Z,55.47
2022-09-07T20:14:37.038Z,55.53
2022-09-07T20:17:04.800Z,55.59
2022-09-07T20:19:32.591Z,55.75
2022-09-07T20:22:00.587Z,55.92
2022-09-07T20:24:28.500Z,56.15
2022-09-07T20:26:56.250Z,55.94
2022-09-07T20:29:27.647Z,55.38
2022-09-07T20:31:57.781Z,55.68
2022-09-07T20:34:28.846Z,54.68
2022-09-07T20:36:57.107Z,54.43
2022-09-07T20:39:25.332Z,54.84
2022-09-07T20:41:53.734Z,54.88
2022-09-07T20:44:21.455Z,55.10
2022-09-07T20:46:49.155Z,55.38
2022-09-07T20:49:17.304Z,55.26
2022-09-07T20:51:45.188Z,55.28
2022-09-07T20:54:13.619Z,55.48
2022-09-07T20:56:41.459Z,55.14
2022-09-07T20:59:09.807Z,54.80
2022-09-07T21:01:37.945Z,55.00
2022-09-07T21:04:06.355Z,55.52
2022-09-07T21:06:34.318Z,55.72
2022-09-07T21:09:02.236Z,56.16
2022-09-07T21:11:33.949Z,56.39
2022-09-07T21:14:07.559Z,56.32
2022-09-07T21:16:37.110Z,56.71
2022-09-07T21:19:07.428Z,56.73
2022-09-07T21:21:40.617Z,56.92
2022-09-07T21:24:19.971Z,57.50
2022-09-07T21:26:48.870Z,57.02
2022-09-07T21:29:22.939Z,56.72
2022-09-07T21:31:55.011Z,56.46
2022-09-07T21:34:23.558Z,56.81
2022-09-07T21:36:51.927Z,56.87
2022-09-07T21:39:20.812Z,57.41
2022-09-07T21:41:49.002Z,57.96
2022-09-07T21:44:17.097Z,58.15
2022-09-07T21:46:45.013Z,58.35
2022-09-07T21:49:13.458Z,58.26
2022-09-07T21:51:41.336Z,58.62
2022-09-07T21:54:09.594Z,59.11
2022-09-07T21:56:37.617Z,59.41
2022-09-07T21:59:06.237Z,59.52
2022-09-07T22:01:34.136Z,60.01
2022-09-07T22:04:04.247Z,60.40
2022-09-07T22:06:32.762Z,60.86
2022-09-07T22:09:01.552Z,61.48
2022-09-07T22:11:30.620Z,61.62
2022-09-07T22:14:03.535Z,62.40
2022-09-07T22:16:34.071Z,62.79
2022-09-07T22:19:02.284Z,63.10
2022-09-07T22:21:30.913Z,63.15
2022-09-07T22:24:02.028Z,63.61
2022-09-07T22:26:32.556Z,63.84
2022-09-07T22:29:00.873Z,63.79
2022-09-07T22:31:31.827Z,63.94
2022-09-07T22:34:01.405Z,64.03
2022-09-07T22:36:31.024Z,63.96
2022-09-07T22:39:01.279Z,63.86
2022-09-07T22:41:34.491Z,64.23
2022-09-07T22:44:02.857Z,64.72
2022-09-07T22:46:34.750Z,64.48
2022-09-07T22:49:03.710Z,64.67
2022-09-07T22:51:31.445Z,64.83
2022-09-07T22:53:59.479Z,65.00
2022-09-07T22:56:31.322Z,65.19
2022-09-07T22:59:05.033Z,65.31
2022-09-07T23:01:33.696Z,65.76
2022-09-07T23:04:02.067Z,65.75
2022-09-07T23:06:34.898Z,65.79
2022-09-07T23:09:07.656Z,65.99
2022-09-07T23:11:35.811Z,65.93
2022-09-07T23:14:07.655Z,66.33
2022-09-07T23:16:35.428Z,66.33
2022-09-07T23:19:03.556Z,66.83
2022-09-07T23:21:31.471Z,66.89
2022-09-07T23:24:01.181Z,67.15
2022-09-07T23:26:31.491Z,67.44
2022-09-07T23:29:04.874Z,67.68
2022-09-07T23:31:34.946Z,68.04
2022-09-07T23:34:04.723Z,67.90
2022-09-07T23:36:32.734Z,68.11
2022-09-07T23:39:01.285Z,68.46
2022-09-07T23:41:29.662Z,68.67
2022-09-07T23:43:57.707Z,68.72
2022-09-07T23:46:25.588Z,68.85
2022-09-07T23:48:53.861Z,68.72
2022-09-07T23:51:24.254Z,68.83
2022-09-07T23:53:53.273Z,69.17
2022-09-07T23:56:24.555Z,69.63
2022-09-07T23:58:52.696Z,69.53
